Time;durP1;ratioP1;P1;durP2;ratioP2;P2;SDS_P1;SDS_P2;PMS_P1;PMS_P2;Temp;Humidity;BMP_temperature;BMP_pressure;BME280_temperature;BME280_humidity;BME280_pressure;Samples;Min_cycle;Max_cycle;Signal;HPM_P1;HPM_P2
2022/05/06 00:01:03;;;;;;;12.97;9.60;;;14.90;90.90;;;15.41;58.23;99188.34;4984837;28;113975;-94
2022/05/06 00:03:30;;;;;;;12.53;9.97;;;14.90;90.90;;;15.41;58.42;99185.56;4969739;28;113372;-94
2022/05/06 00:05:56;;;;;;;13.30;9.63;;;14.90;90.90;;;15.42;58.05;99187.19;4968317;28;123260;-95
2022/05/06 00:08:23;;;;;;;12.37;9.33;;;14.90;91.00;;;15.42;58.11;99195.56;4966145;28;123284;-94
2022/05/06 00:10:49;;;;;;;13.50;10.17;;;14.90;91.00;;;15.43;58.23;99188.00;4951477;28;113362;-96
2022/05/06 00:13:17;;;;;;;10.50;8.70;;;14.90;90.90;;;15.44;58.35;99193.22;4955238;28;113094;-94
2022/05/06 00:19:25;;;;;;;11.60;8.10;;;14.90;90.90;;;15.43;58.11;99197.19;4982323;28;124170;-93
2022/05/06 00:22:12;;;;;;;11.80;8.80;;;14.90;90.90;;;15.43;58.04;99194.38;5026887;28;115069;-94
2022/05/06 00:24:38;;;;;;;11.50;7.87;;;17.10;91.90;;;15.42;58.34;99189.97;4985158;28;114833;-94
2022/05/06 00:27:05;;;;;;;10.40;7.00;;;14.90;90.90;;;15.45;58.30;99194.06;5005538;28;122344;-95
2022/05/06 00:29:33;;;;;;;10.60;8.03;;;14.90;91.20;;;15.48;58.08;99195.38;4969626;28;123855;-95
2022/05/06 00:32:02;;;;;;;10.53;7.67;;;14.90;90.90;;;15.49;58.18;99191.41;4970820;28;114400;-95
2022/05/06 00:34:28;;;;;;;9.10;7.80;;;14.90;90.90;;;15.51;58.20;99189.13;4968950;28;113449;-94
2022/05/06 00:36:55;;;;;;;11.73;8.60;;;14.90;90.90;;;15.51;58.03;99189.94;4969229;28;124152;-94
2022/05/06 00:39:22;;;;;;;13.87;8.20;;;15.00;91.00;;;15.53;58.09;99184.84;4968872;28;124257;-94
2022/05/06 00:41:53;;;;;;;12.53;8.43;;;15.00;91.00;;;15.53;57.89;99184.00;4969201;28;114663;-95
2022/05/06 00:44:22;;;;;;;15.63;9.50;;;15.00;90.90;;;15.54;57.92;99185.66;4970860;28;113903;-94
2022/05/06 00:46:52;;;;;;;12.03;8.10;;;15.00;90.90;;;15.52;58.00;99183.19;4968193;28;124354;-94
2022/05/06 00:49:20;;;;;;;9.83;8.10;;;15.00;90.90;;;15.51;57.99;99181.56;4967614;28;123757;-94
2022/05/06 00:51:48;;;;;;;13.83;10.33;;;15.00;90.90;;;15.50;58.05;99181.91;4971180;28;114973;-94
2022/05/06 00:54:15;;;;;;;11.03;8.53;;;15.00;90.90;;;15.51;58.05;99175.19;4968864;28;116301;-94
2022/05/06 00:56:42;;;;;;;10.50;8.40;;;15.00;90.90;;;15.53;57.92;99184.00;4968601;28;124271;-95
2022/05/06 00:59:08;;;;;;;14.70;10.43;;;15.00;90.90;;;15.53;58.01;99179.28;4961188;28;124478;-95
2022/05/06 01:01:36;;;;;;;12.73;8.80;;;15.00;90.90;;;15.51;58.07;99191.91;4962567;28;114816;-94
2022/05/06 01:04:09;;;;;;;10.93;9.30;;;15.00;90.90;;;15.50;57.79;99173.53;4967905;28;113312;-94
2022/05/06 01:06:36;;;;;;;14.20;9.57;;;15.00;90.90;;;15.49;57.97;99185.84;4977382;28;124255;-94
2022/05/06 01:09:03;;;;;;;11.43;8.27;;;14.90;90.90;;;15.47;58.26;99172.25;4983439;28;123887;-95
2022/05/06 01:11:31;;;;;;;11.23;9.10;;;14.90;90.90;;;15.46;58.00;99174.22;4969387;28;114495;-94
2022/05/06 01:13:58;;;;;;;13.10;9.17;;;14.90;90.90;;;15.48;58.04;99175.88;4984055;28;114632;-94
2022/05/06 01:16:32;;;;;;;16.10;11.20;;;14.90;90.90;;;15.47;58.13;99180.59;4971037;28;124083;-94
2022/05/06 01:18:58;;;;;;;15.47;10.80;;;14.90;91.00;;;15.46;58.04;99179.78;4967520;28;124039;-93
2022/05/06 01:21:27;;;;;;;18.03;11.40;;;14.90;91.00;;;15.44;58.08;99184.88;4960907;28;114084;-93
2022/05/06 01:23:54;;;;;;;16.93;10.60;;;14.90;91.00;;;15.43;58.14;99194.38;4956955;28;114099;-93
2022/05/06 01:26:20;;;;;;;15.40;10.90;;;14.90;91.00;;;15.43;58.07;99179.66;4954104;28;124753;-95
2022/05/06 01:28:49;;;;;;;12.83;9.90;;;14.90;91.00;;;15.41;58.30;99193.91;4971265;28;122815;-94
2022/05/06 01:31:22;;;;;;;17.70;10.00;;;14.90;91.00;;;15.42;58.04;99197.50;4968910;28;114392;-94
2022/05/06 01:33:55;;;;;;;14.23;10.40;;;14.80;91.00;;;15.37;58.28;99186.56;4999859;28;114299;-94
2022/05/06 01:36:25;;;;;;;13.47;9.40;;;14.80;91.00;;;15.35;58.39;99186.09;4966236;28;124130;-93
2022/05/06 01:39:00;;;;;;;13.37;10.00;;;14.80;91.00;;;15.33;58.38;99197.53;4955901;28;123730;-93
2022/05/06 01:41:28;;;;;;;16.47;11.30;;;14.80;91.00;;;15.31;58.53;99196.25;4951683;28;112535;-95
2022/05/06 01:44:07;;;;;;;14.83;10.10;;;14.80;91.10;;;15.31;58.51;99188.69;4968381;28;114114;-96
2022/05/06 01:46:36;;;;;;;12.07;9.00;;;14.80;91.10;;;15.28;58.51;99194.94;4966577;28;123929;-96
2022/05/06 01:49:04;;;;;;;15.57;10.63;;;14.80;91.10;;;15.29;58.46;99191.03;4981476;28;121877;-95
2022/05/06 01:51:32;;;;;;;12.70;9.63;;;14.80;91.10;;;15.29;58.40;99193.00;4967972;28;115186;-95
2022/05/06 01:53:59;;;;;;;11.50;8.60;;;14.80;91.10;;;15.30;58.69;99187.09;4953421;28;112941;-95
2022/05/06 01:56:26;;;;;;;13.70;9.70;;;14.80;91.10;;;15.29;58.45;99193.00;4949468;28;124098;-94
2022/05/06 01:58:52;;;;;;;14.97;11.10;;;14.80;91.20;;;15.26;58.46;99200.06;4967981;28;123818;-93
2022/05/06 02:01:19;;;;;;;15.27;10.43;;;14.70;91.10;;;15.25;58.70;99195.63;4970555;28;116176;-94
2022/05/06 02:06:30;;;;;;;14.43;10.43;;;14.70;91.20;;;15.21;58.64;99200.22;4997815;28;124610;-93
2022/05/06 02:08:56;;;;;;;14.17;9.90;;;14.70;91.20;;;15.21;58.74;99192.69;4966973;28;123713;-93
2022/05/06 02:11:23;;;;;;;13.80;9.70;;;14.70;91.20;;;15.21;58.66;99192.69;4969555;28;114318;-95
2022/05/06 02:13:50;;;;;;;14.00;9.00;;;14.70;91.20;;;15.22;58.72;99193.50;4968808;28;113926;-94
2022/05/06 02:16:16;;;;;;;12.80;9.97;;;14.70;91.20;;;15.22;58.79;99187.94;4954819;28;123752;-94
2022/05/06 02:18:43;;;;;;;14.37;9.10;;;14.70;91.20;;;15.21;58.61;99183.53;4962756;28;124423;-94
2022/05/06 02:21:09;;;;;;;16.77;9.70;;;14.70;91.20;;;15.21;58.70;99189.09;4958125;28;113673;-93
2022/05/06 02:23:37;;;;;;;12.20;10.20;;;14.70;91.30;;;15.19;58.78;99186.63;4975956;28;113758;-95
2022/05/06 02:26:03;;;;;;;15.20;9.67;;;14.70;91.30;;;15.18;58.87;99185.00;4972373;28;124631;-93
2022/05/06 02:28:30;;;;;;;13.00;9.47;;;14.70;91.30;;;15.19;58.78;99191.38;4972113;28;123806;-94
2022/05/06 02:33:43;;;;;;;14.90;10.97;;;14.60;91.30;;;15.14;58.79;99186.81;4967379;28;114649;-94
2022/05/06 02:36:09;;;;;;;12.30;10.03;;;14.60;91.30;;;15.12;59.00;99186.31;4966186;28;123382;-94
2022/05/06 02:38:36;;;;;;;11.33;9.40;;;14.60;91.30;;;15.12;58.98;99197.47;4956163;28;123394;-94
2022/05/06 02:41:02;;;;;;;14.17;10.87;;;14.60;91.30;;;15.09;58.97;99194.53;4989719;28;114040;-94
2022/05/06 02:43:29;;;;;;;14.90;10.40;;;14.60;91.40;;;15.09;58.95;99197.31;4991002;28;113106;-95
2022/05/06 02:45:56;;;;;;;14.03;11.00;;;14.60;91.40;;;15.07;58.89;99188.47;4983594;28;124097;-94
2022/05/06 02:48:22;;;;;;;12.93;9.67;;;14.50;91.40;;;15.05;58.95;99193.59;4971799;28;121947;-96
2022/05/06 02:50:49;;;;;;;13.63;9.77;;;14.50;91.40;;;15.03;59.17;99205.03;4968320;28;114942;-94
2022/05/06 02:53:15;;;;;;;11.23;8.67;;;14.50;91.40;;;15.02;59.02;99195.06;4960602;28;114852;-94
2022/05/06 02:55:42;;;;;;;10.23;7.90;;;14.50;91.40;;;15.02;59.12;99198.66;4993395;28;123046;-94
2022/05/06 02:58:09;;;;;;;11.77;7.97;;;14.50;91.40;;;15.03;59.04;99199.47;4969458;28;124133;-94
2022/05/06 03:00:36;;;;;;;11.47;9.13;;;14.50;91.40;;;15.06;59.44;99198.00;4952868;28;114485;-93
2022/05/06 03:03:04;;;;;;;12.97;8.93;;;14.50;91.50;;;15.02;59.21;99187.53;4969912;28;112852;-94
2022/05/06 03:05:31;;;;;;;10.93;8.73;;;14.50;91.50;;;15.02;59.19;99195.88;4970685;28;124206;-94
2022/05/06 03:07:57;;;;;;;14.70;10.77;;;14.50;91.50;;;14.99;59.25;99196.53;4970403;28;123183;-95
2022/05/06 03:10:25;;;;;;;20.40;10.70;;;14.50;91.50;;;14.96;59.54;99197.22;4970109;28;113449;-93
2022/05/06 03:12:55;;;;;;;12.43;9.33;;;14.50;91.60;;;14.93;59.36;99189.50;4973201;28;112843;-94
2022/05/06 03:15:24;;;;;;;15.43;10.43;;;14.40;91.60;;;14.92;59.41;99192.63;4995384;28;124475;-94
2022/05/06 03:17:52;;;;;;;12.43;9.20;;;14.40;91.60;;;14.90;59.55;99187.38;5001652;28;123053;-93
2022/05/06 03:20:19;;;;;;;12.23;9.80;;;14.40;91.70;;;14.91;59.46;99186.25;4951284;28;114216;-95
2022/05/06 03:22:50;;;;;;;10.27;8.37;;;14.40;91.70;;;14.90;59.51;99189.34;4960192;28;113323;-95
2022/05/06 03:25:17;;;;;;;12.93;9.50;;;14.40;91.70;;;14.90;59.32;99190.16;4970341;28;124262;-94
2022/05/06 03:28:03;;;;;;;12.20;8.83;;;14.40;91.70;;;14.89;59.56;99188.56;4987338;28;122118;-93
2022/05/06 03:30:32;;;;;;;11.00;9.17;;;14.40;91.70;;;14.88;59.69;99192.47;4987259;28;114892;-95
2022/05/06 03:32:59;;;;;;;11.77;8.63;;;14.40;91.70;;;14.88;59.53;99192.47;4967113;28;114174;-94
2022/05/06 03:35:27;;;;;;;9.57;8.37;;;14.40;91.70;;;14.88;59.57;99192.47;5001334;28;124439;-95
2022/05/06 03:37:54;;;;;;;10.17;8.47;;;14.40;91.70;;;14.88;59.57;99195.25;4972284;28;124498;-94
2022/05/06 03:40:21;;;;;;;13.23;10.00;;;14.40;91.70;;;14.85;59.76;99184.78;4969982;28;115320;-95
2022/05/06 03:42:47;;;;;;;10.60;8.97;;;14.30;91.80;;;14.85;59.60;99198.69;4992997;28;114883;-94
2022/05/06 03:45:14;;;;;;;12.30;9.20;;;14.40;91.80;;;14.86;59.86;99193.97;4969035;28;124104;-94
2022/05/06 03:47:40;;;;;;;12.70;9.27;;;14.30;91.80;;;14.87;59.97;99190.03;4968843;28;123244;-96
2022/05/06 03:52:52;;;;;;;10.53;7.97;;;14.30;91.80;;;14.85;59.94;99197.88;4976207;28;114344;-94
2022/05/06 03:55:20;;;;;;;8.90;7.67;;;14.40;91.90;;;14.83;59.75;99194.59;4968920;28;124047;-94
2022/05/06 03:57:47;;;;;;;9.37;7.40;;;14.40;91.90;;;14.85;59.79;99198.69;5001708;28;124125;-95
2022/05/06 04:00:15;;;;;;;8.47;6.93;;;14.30;91.90;;;14.88;59.86;99197.22;4967875;28;113709;-93
2022/05/06 04:02:43;;;;;;;18.43;10.10;;;14.30;91.90;;;14.87;60.03;99204.75;4986432;28;114159;-94
2022/05/06 04:05:10;;;;;;;11.77;8.13;;;14.30;92.00;;;14.86;60.08;99205.91;4968008;28;123873;-94
2022/05/06 04:07:37;;;;;;;15.20;8.77;;;14.30;92.00;;;14.85;60.07;99212.59;4985431;28;124090;-95
2022/05/06 04:10:05;;;;;;;10.27;7.70;;;14.30;92.00;;;14.83;60.01;99216.84;4987782;28;114732;-94
2022/05/06 04:12:34;;;;;;;9.97;8.30;;;14.30;92.10;;;14.82;60.13;99224.41;4970272;28;113984;-93
2022/05/06 04:15:21;;;;;;;11.17;8.40;;;14.30;92.10;;;14.81;60.20;99208.84;4972567;28;124032;-95
2022/05/06 04:18:07;;;;;;;7.73;6.77;;;14.30;92.10;;;14.81;60.29;99214.44;4975294;28;123512;-94
2022/05/06 04:23:30;;;;;;;8.60;6.70;;;14.30;92.20;;;14.85;60.29;99223.72;4994794;28;114330;-93
2022/05/06 04:26:04;;;;;;;9.97;7.60;;;14.30;92.20;;;14.86;60.20;99230.94;4981019;28;124936;-94
2022/05/06 04:28:31;;;;;;;11.27;8.10;;;14.30;92.20;;;14.85;60.20;99229.28;4972655;28;123907;-91
2022/05/06 04:30:58;;;;;;;10.80;8.00;;;14.30;92.30;;;14.86;60.35;99232.91;4998824;28;115243;-94
2022/05/06 04:33:26;;;;;;;12.20;7.97;;;14.30;92.30;;;14.83;60.39;99228.81;4963615;28;115123;-94
2022/05/06 04:35:54;;;;;;;10.03;7.50;;;14.30;92.30;;;14.83;60.33;99234.41;4988227;28;123741;-95
2022/05/06 04:38:22;;;;;;;8.63;7.03;;;14.30;92.30;;;14.83;60.43;99233.56;4968588;28;124346;-94
2022/05/06 04:40:51;;;;;;;9.20;7.37;;;14.30;92.30;;;14.82;60.51;99231.94;4972396;28;114413;-95
2022/05/06 04:43:21;;;;;;;10.80;8.20;;;14.30;92.40;;;14.82;60.50;99241.09;4968073;28;112978;-95
2022/05/06 04:45:51;;;;;;;12.53;7.10;;;14.30;92.40;;;14.78;60.44;99238.16;4966271;28;123678;-95
2022/05/06 04:48:19;;;;;;;12.00;9.20;;;14.30;92.40;;;14.77;60.87;99239.28;4962554;28;123878;-95
2022/05/06 04:50:48;;;;;;;10.03;8.07;;;14.20;92.50;;;14.75;60.82;99243.56;4970098;28;113717;-94
2022/05/06 04:53:15;;;;;;;10.03;8.20;;;14.20;92.50;;;14.73;60.76;99245.84;4987398;28;114486;-95
2022/05/06 04:55:46;;;;;;;8.70;6.80;;;14.20;92.60;;;14.69;60.96;99237.34;4986332;28;123109;-95
2022/05/06 04:58:17;;;;;;;9.27;7.30;;;14.20;92.60;;;14.68;61.18;99234.91;4961715;28;123793;-94
2022/05/06 05:00:44;;;;;;;9.40;7.40;;;14.20;92.60;;;14.65;61.23;99243.91;4985113;28;114313;-94
2022/05/06 05:03:11;;;;;;;8.73;7.60;;;14.20;92.70;;;14.63;61.22;99246.19;4961854;28;113990;-94
2022/05/06 05:05:38;;;;;;;9.47;7.30;;;14.20;92.70;;;14.64;61.21;99253.38;4953431;28;124464;-95
2022/05/06 05:08:08;;;;;;;8.53;6.90;;;14.10;92.70;;;14.64;61.20;99248.66;4959485;28;124257;-94
2022/05/06 05:10:35;;;;;;;9.73;7.83;;;14.10;92.80;;;14.65;61.26;99246.69;4967216;28;112689;-94
2022/05/06 05:13:02;;;;;;;8.40;7.03;;;14.20;92.90;;;14.64;61.59;99247.81;4966700;28;113209;-95
2022/05/06 05:15:29;;;;;;;8.80;7.27;;;14.10;92.80;;;14.62;61.51;99266.81;4956570;28;124240;-94
2022/05/06 05:17:56;;;;;;;8.20;6.87;;;14.10;92.80;;;14.62;61.52;99261.25;4961976;28;123936;-95
2022/05/06 05:20:22;;;;;;;9.00;6.60;;;14.10;92.90;;;14.58;61.54;99264.66;4961860;28;115247;-94
2022/05/06 05:22:49;;;;;;;7.83;6.67;;;14.10;92.90;;;14.58;61.47;99259.09;4969654;28;114357;-93
2022/05/06 05:25:15;;;;;;;7.37;6.50;;;14.10;93.00;;;14.62;61.40;99264.03;4954759;28;123891;-95
2022/05/06 05:27:42;;;;;;;7.90;6.17;;;14.10;93.00;;;14.62;61.65;99261.25;4964665;28;123530;-93
2022/05/06 05:30:10;;;;;;;10.10;7.40;;;14.10;93.00;;;14.63;61.56;99254.53;4991431;28;114261;-93
2022/05/06 05:32:39;;;;;;;7.93;6.60;;;14.10;93.10;;;14.62;61.86;99261.25;4968342;28;113762;-91
2022/05/06 05:35:07;;;;;;;8.70;6.50;;;14.10;93.10;;;14.61;61.75;99263.19;4956432;28;124119;-93
2022/05/06 05:37:34;;;;;;;7.00;6.13;;;14.10;93.20;;;14.62;61.76;99264.03;4964602;28;124470;-93
2022/05/06 05:40:06;;;;;;;9.67;6.70;;;14.10;93.20;;;14.61;61.91;99268.75;4964376;28;113669;-94
2022/05/06 05:42:32;;;;;;;7.83;6.47;;;14.10;93.30;;;14.62;61.81;99264.03;4980862;28;113931;-92
2022/05/06 05:50:29;;;;;;;7.20;6.47;;;14.00;93.40;;;14.49;62.25;99274.13;4970618;28;114983;-91
2022/05/06 05:52:56;;;;;;;8.07;6.60;;;14.00;93.40;;;14.46;62.10;99258.94;4958505;28;112615;-91
2022/05/06 05:55:22;;;;;;;8.03;7.20;;;14.00;93.40;;;14.44;62.39;99266.75;4955353;28;125282;-93
2022/05/06 05:57:49;;;;;;;8.90;7.53;;;14.00;93.40;;;14.43;62.43;99270.69;4964025;28;124531;-91
2022/05/06 06:00:16;;;;;;;10.83;8.00;;;13.90;93.50;;;14.42;62.85;99276.56;4963986;28;114618;-91
2022/05/06 06:02:43;;;;;;;10.27;8.57;;;13.90;93.50;;;14.40;62.59;99282.47;4964737;28;113794;-91
2022/05/06 06:05:10;;;;;;;9.83;7.90;;;13.90;93.60;;;14.39;62.77;99274.44;4991905;28;123454;-93
2022/05/06 06:07:36;;;;;;;10.27;7.90;;;13.90;93.60;;;14.38;62.92;99279.19;4951601;28;123775;-93
2022/05/06 06:10:03;;;;;;;10.63;7.37;;;13.90;93.70;;;14.39;62.51;99278.03;4968648;28;115623;-91
2022/05/06 06:12:30;;;;;;;9.50;7.43;;;13.90;93.80;;;14.41;62.82;99284.09;4963845;28;114457;-92
2022/05/06 06:14:56;;;;;;;9.30;7.50;;;13.90;93.80;;;14.39;62.85;99286.38;4954543;28;123996;-89
2022/05/06 06:17:23;;;;;;;7.83;6.83;;;13.90;93.80;;;14.39;63.05;99280.00;4954406;28;123943;-90
2022/05/06 06:19:50;;;;;;;9.87;8.20;;;13.90;93.80;;;14.40;63.03;99282.47;4958725;28;114159;-90
2022/05/06 06:22:17;;;;;;;9.70;6.93;;;13.90;93.90;;;14.41;63.00;99289.66;4955606;28;114032;-91
2022/05/06 06:24:43;;;;;;;7.70;6.90;;;13.90;94.00;;;14.41;63.04;99288.84;4964339;28;124598;-91
2022/05/06 06:27:10;;;;;;;7.50;6.10;;;13.90;93.90;;;14.44;62.94;99289.00;4961732;28;123672;-92
2022/05/06 06:29:36;;;;;;;9.50;7.10;;;13.90;93.90;;;14.47;62.76;99285.56;4966663;28;114071;-92
2022/05/06 06:32:03;;;;;;;10.17;6.53;;;13.90;93.90;;;14.48;62.90;99287.22;4966784;28;113820;-92
2022/05/06 06:34:31;;;;;;;8.53;6.73;;;13.90;93.90;;;14.51;62.60;99289.34;4966551;28;123514;-91
2022/05/06 06:36:57;;;;;;;7.03;5.37;;;13.90;93.90;;;14.53;62.72;99291.81;4966136;28;122817;-93
2022/05/06 06:39:24;;;;;;;7.13;6.13;;;14.00;93.90;;;14.55;62.64;99287.56;4964407;28;114784;-93
2022/05/06 06:41:50;;;;;;;7.57;4.73;;;14.00;93.90;;;14.55;62.49;99295.09;4964305;28;113954;-95
2022/05/06 06:44:36;;;;;;;9.10;6.13;;;14.00;93.90;;;14.54;62.55;99293.47;4980297;28;123891;-93
2022/05/06 06:47:14;;;;;;;7.70;5.80;;;14.00;93.80;;;14.55;62.47;99295.91;4981710;28;123419;-96
2022/05/06 06:50:18;;;;;;;7.20;6.30;;;14.00;93.80;;;14.55;62.29;99301.47;5010535;28;114809;-93
2022/05/06 06:53:03;;;;;;;6.73;5.47;;;14.00;93.80;;;14.56;62.50;99300.34;5024902;28;113272;-95
2022/05/06 06:55:30;;;;;;;6.93;6.20;;;14.00;93.80;;;14.54;62.40;99305.41;4970343;28;123857;-95
2022/05/06 06:57:58;;;;;;;10.20;6.03;;;14.00;93.70;;;14.57;62.48;99299.19;4984808;28;123622;-94
2022/05/06 07:00:26;;;;;;;9.93;6.67;;;14.00;93.70;;;14.61;62.18;99299.34;4989864;28;114680;-95
2022/05/06 07:02:55;;;;;;;12.00;7.80;;;14.10;93.80;;;14.63;62.35;99304.59;4985308;28;113983;-96
2022/05/06 07:11:52;;;;;;;8.03;6.73;;;14.10;93.80;;;14.63;62.31;99307.38;4986883;28;124260;-96
2022/05/06 07:15:34;;;;;;;11.33;7.07;;;14.10;93.80;;;14.61;62.32;99306.88;4988048;28;114980;-96
2022/05/06 07:18:01;;;;;;;11.20;6.97;;;14.10;93.80;;;14.63;62.39;99307.38;4972405;28;123668;-92
2022/05/06 07:20:48;;;;;;;8.90;6.27;;;14.10;93.80;;;14.67;62.25;99308.34;4983247;28;122617;-96
2022/05/06 07:24:11;;;;;;;10.23;6.93;;;14.10;93.80;;;14.68;62.10;99315.56;4964193;28;116107;-95
2022/05/06 07:26:39;;;;;;;9.27;6.97;;;14.10;93.80;;;14.70;62.12;99318.84;4979808;28;113954;-93
2022/05/06 07:29:47;;;;;;;11.07;7.20;;;14.10;93.80;;;14.70;62.00;99318.84;4999288;28;123539;-95
2022/05/06 07:32:14;;;;;;;7.13;6.10;;;14.20;93.70;;;14.74;62.08;99323.41;4988555;28;123334;-88
2022/05/06 07:34:42;;;;;;;7.20;6.00;;;14.20;93.70;;;14.79;61.87;99311.28;4994654;28;114603;-93
2022/05/06 07:37:08;;;;;;;7.93;6.60;;;14.20;93.60;;;14.81;61.52;99314.56;5006067;28;113278;-96
2022/05/06 07:39:35;;;;;;;12.53;7.73;;;14.20;93.60;;;14.85;61.62;99317.50;4992785;28;123567;-95
2022/05/06 07:43:00;;;;;;;7.90;6.13;;;14.30;93.50;;;14.85;61.47;99321.09;5005729;28;123977;-96
2022/05/06 07:49:08;;;;;;;9.33;5.20;;;14.30;93.40;;;14.99;61.35;99321.75;4984785;28;113807;-95
2022/05/06 07:51:38;;;;;;;9.10;6.60;;;14.30;93.40;;;15.02;61.07;99321.09;4981854;28;121678;-95
2022/05/06 07:54:05;;;;;;;8.30;5.43;;;14.40;93.30;;;15.07;60.84;99314.56;4985732;28;124374;-96
2022/05/06 07:56:53;;;;;;;5.33;4.83;;;14.40;93.20;;;15.13;60.60;99315.19;4985494;28;115156;-95
2022/05/06 07:59:20;;;;;;;6.63;5.93;;;14.50;93.20;;;15.17;60.55;99316.16;4964306;28;114050;-92
2022/05/06 08:04:35;;;;;;;5.70;4.80;;;14.50;92.90;;;15.20;60.08;99319.09;4962513;28;124626;-96
2022/05/06 08:07:04;;;;;;;5.60;5.00;;;14.60;92.90;;;15.21;60.28;99315.19;4967500;28;113700;-95
2022/05/06 08:09:34;;;;;;;6.10;5.00;;;14.60;92.80;;;15.25;60.17;99318.09;4975080;28;113331;-95
2022/05/06 08:12:03;;;;;;;4.57;3.77;;;14.60;92.80;;;15.28;59.98;99314.66;4974768;28;124971;-95
2022/05/06 08:14:32;;;;;;;4.67;4.27;;;14.70;92.80;;;15.31;59.99;99322.34;4977136;28;123657;-96
2022/05/06 08:16:59;;;;;;;5.23;4.73;;;14.70;92.80;;;15.37;59.97;99334.97;4971503;28;113956;-94
2022/05/06 08:19:27;;;;;;;4.80;4.40;;;14.70;92.80;;;15.43;60.07;99325.28;4974276;28;114639;-90
2022/05/06 08:21:56;;;;;;;5.63;4.60;;;14.80;92.70;;;15.49;59.71;99327.88;4982893;28;123218;-92
2022/05/06 08:24:23;;;;;;;5.10;4.60;;;14.80;92.70;;;15.52;59.53;99322.44;4986780;28;121964;-95
2022/05/06 08:26:51;;;;;;;5.83;4.10;;;14.80;92.60;;;15.56;59.67;99326.22;4966420;28;113704;-94
2022/05/06 08:29:18;;;;;;;4.60;4.10;;;14.90;92.60;;;15.60;59.60;99326.38;4968812;28;113346;-94
2022/05/06 08:31:45;;;;;;;6.07;4.37;;;14.90;92.60;;;15.65;59.55;99329.78;4971050;28;123738;-91
2022/05/06 08:34:13;;;;;;;5.47;4.40;;;15.00;92.60;;;15.72;59.40;99329.31;4973287;28;121618;-94
2022/05/06 08:36:45;;;;;;;9.80;5.97;;;15.00;92.60;;;15.75;59.07;99331.44;5005412;28;114066;-91
2022/05/06 08:39:12;;;;;;;8.77;5.93;;;15.10;92.70;;;15.77;59.11;99337.50;4983256;28;114861;-92
2022/05/06 08:41:59;;;;;;;9.20;5.73;;;15.10;92.40;;;15.80;59.07;99333.22;4974630;28;126144;-93
2022/05/06 08:52:50;;;;;;;11.23;4.60;;;15.20;92.00;;;15.86;58.51;99338.25;4972218;28;125187;-94
2022/05/06 08:55:17;;;;;;;4.90;4.33;;;15.30;92.00;;;15.89;58.52;99337.59;5001403;28;124313;-93
2022/05/06 08:57:46;;;;;;;5.17;3.93;;;15.30;92.00;;;15.96;58.54;99342.66;4965518;28;114299;-94
2022/05/06 09:00:14;;;;;;;5.03;3.97;;;15.30;92.00;;;16.03;58.48;99331.78;4966897;28;114292;-94
2022/05/06 09:02:41;;;;;;;4.20;3.80;;;15.40;92.30;;;16.09;58.43;99332.41;4973897;28;123868;-93
2022/05/06 09:05:16;;;;;;;5.43;3.90;;;15.40;91.90;;;16.14;57.87;99329.41;4962525;28;123157;-95
2022/05/06 09:08:05;;;;;;;7.53;5.47;;;15.50;91.90;;;16.16;57.99;99329.09;4976413;28;113973;-93
2022/05/06 09:10:31;;;;;;;10.27;6.00;;;15.50;91.70;;;16.18;57.84;99338.75;4995642;28;112789;-93
2022/05/06 09:13:01;;;;;;;9.30;5.03;;;15.50;91.70;;;16.24;57.82;99334.63;4970226;28;124247;-92
2022/05/06 09:18:37;;;;;;;4.57;4.00;;;15.60;91.60;;;16.30;57.48;99343.59;4995375;28;114619;-94
2022/05/06 09:21:11;;;;;;;7.67;5.40;;;15.60;91.40;;;16.29;56.53;99339.19;4983041;28;113094;-91
2022/05/06 09:23:37;;;;;;;8.53;5.40;;;15.70;91.00;;;16.25;56.12;99339.03;4963210;28;123865;-93
2022/05/06 09:26:15;;;;;;;7.50;5.07;;;15.60;90.50;;;16.27;55.97;99341.50;4971038;28;124563;-92
2022/05/06 09:28:43;;;;;;;5.70;5.10;;;15.60;90.50;;;16.30;56.13;99341.63;4971712;28;114186;-92
2022/05/06 09:31:11;;;;;;;4.70;4.00;;;15.70;90.60;;;16.35;55.94;99344.22;4991394;28;114211;-90
2022/05/06 09:33:46;;;;;;;5.70;4.33;;;15.70;90.60;;;16.41;55.84;99344.84;4964821;28;123364;-92
2022/05/06 09:36:29;;;;;;;7.30;4.90;;;15.80;90.50;;;16.45;55.35;99345.00;4963665;28;122884;-92
2022/05/06 09:39:14;;;;;;;7.93;5.57;;;15.80;90.20;;;16.48;55.56;99341.53;4968819;28;114944;-93
2022/05/06 09:41:44;;;;;;;5.03;4.40;;;15.90;90.30;;;16.54;55.34;99342.97;4969688;28;114676;-93
2022/05/06 09:44:12;;;;;;;5.03;4.57;;;15.80;90.30;;;16.62;55.36;99346.84;4969710;28;123660;-91
2022/05/06 09:46:38;;;;;;;5.30;3.73;;;16.00;90.20;;;16.67;55.24;99339.09;4976107;28;124326;-92
2022/05/06 09:49:06;;;;;;;7.03;4.60;;;16.00;90.20;;;16.74;55.17;99342.16;4983336;28;113686;-93
2022/05/06 09:51:34;;;;;;;4.50;4.10;;;16.10;90.10;;;16.79;55.02;99335.56;4975324;28;115118;-95
2022/05/06 09:54:03;;;;;;;4.07;3.67;;;16.20;90.10;;;16.86;55.14;99337.81;4984077;28;124012;-95
2022/05/06 09:56:30;;;;;;;3.47;3.17;;;18.60;91.10;;;16.95;54.66;99338.56;4977866;28;123860;-94
2022/05/06 09:58:57;;;;;;;3.77;3.47;;;16.30;90.00;;;17.02;54.57;99327.66;4976639;28;115042;-95
2022/05/06 10:01:24;;;;;;;4.57;3.90;;;16.30;89.90;;;17.05;54.54;99332.56;4979077;28;114161;-88
2022/05/06 10:03:54;;;;;;;6.53;5.27;;;16.40;89.70;;;17.06;53.99;99320.25;4963549;28;122374;-93
2022/05/06 10:06:25;;;;;;;6.53;5.37;;;16.50;88.80;;;17.08;54.16;99331.88;4988696;28;123264;-90
2022/05/06 10:08:59;;;;;;;5.13;4.30;;;16.50;89.00;;;17.14;54.02;99324.94;4989186;28;114269;-91
2022/05/06 10:11:28;;;;;;;4.37;3.97;;;16.50;89.00;;;17.20;53.95;99329.13;4959984;28;113463;-90
2022/05/06 10:13:58;;;;;;;4.60;3.63;;;16.50;88.80;;;17.28;53.75;99312.63;4957596;28;123322;-90
2022/05/06 10:16:42;;;;;;;5.20;4.00;;;16.60;88.90;;;17.38;53.71;99317.75;4955493;28;123517;-92
2022/05/06 10:19:38;;;;;;;5.27;4.77;;;16.70;88.70;;;17.46;53.17;99314.06;4995527;28;113705;-91
2022/05/06 10:22:05;;;;;;;5.80;4.30;;;16.80;87.60;;;17.50;52.88;99326.19;4992776;28;113270;-93
2022/05/06 10:24:49;;;;;;;5.07;4.23;;;16.80;87.80;;;17.59;52.89;99315.72;4962177;28;123900;-89
2022/05/06 10:33:18;;;;;;;6.50;4.30;;;17.10;87.00;;;17.85;52.32;99315.44;4965335;28;115549;-90
2022/05/06 10:35:47;;;;;;;6.00;4.27;;;17.20;87.20;;;17.94;51.96;99312.53;4963798;28;123265;-91
2022/05/06 10:38:25;;;;;;;6.30;4.90;;;17.30;86.90;;;18.03;51.90;99309.63;4969669;28;123554;-92
2022/05/06 10:40:57;;;;;;;6.73;4.90;;;17.40;86.70;;;18.10;51.85;99307.03;4960377;28;114410;-91
2022/05/06 10:43:54;;;;;;;7.00;4.23;;;17.50;86.20;;;18.17;50.89;99298.09;4962998;28;114054;-92
2022/05/06 10:46:32;;;;;;;10.03;4.93;;;17.60;84.80;;;18.26;50.86;99302.38;4965779;28;123608;-90
2022/05/06 10:49:55;;;;;;;8.47;5.47;;;17.70;85.00;;;18.29;50.43;99292.47;4965756;28;123830;-91
2022/05/06 10:52:26;;;;;;;6.87;5.27;;;17.70;84.30;;;18.39;49.45;99288.38;4966061;28;113377;-91
2022/05/06 10:55:00;;;;;;;7.50;4.97;;;17.80;83.10;;;18.46;49.09;99289.41;4988921;28;113792;-91
2022/05/06 10:57:31;;;;;;;5.20;4.03;;;17.90;82.50;;;18.52;48.80;99288.00;4962227;28;125182;-93
2022/05/06 11:00:01;;;;;;;5.03;4.37;;;18.00;82.10;;;18.59;48.44;99293.00;4977943;28;123371;-93
2022/05/06 11:02:33;;;;;;;8.50;5.00;;;18.00;81.50;;;18.67;47.85;99282.81;4964755;28;114419;-93
2022/05/06 11:05:02;;;;;;;7.20;4.53;;;18.10;80.70;;;18.73;47.64;99287.00;4990548;28;113057;-92
2022/05/06 11:07:31;;;;;;;6.47;4.20;;;18.20;80.50;;;18.79;47.37;99287.59;4972373;28;124456;-92
2022/05/06 11:09:58;;;;;;;6.03;4.07;;;18.20;80.10;;;18.84;46.85;99292.94;4964972;28;123908;-91
2022/05/06 11:12:47;;;;;;;6.17;3.90;;;18.30;79.60;;;18.93;47.20;99291.59;4959817;28;114866;-91